KCIU/CIU METAR and TAF weather

Enter ICAO airport designator
Station Type Date Time Source
KCIU METAR 2019/08/19 21:56 UTC NOAA

KCIU 192156Z AUTO 24009KT 10SM CLR 24/09 A3001 RMK AO2 SLP160 T02390094


Station Type Date Time Source
KCIU Decoded METAR 2019/08/19 21:56 UTC NOAA

Sault Ste Marie, Chippewa County International Airport, MI, United States (KCIU) 46-15N 084-28W
Aug 19, 2019 - 05:56 PM EDT / 2019.08.19 2156 UTC
Wind: from the WSW (240 degrees) at 10 MPH (9 KT):0
Visibility: 10 mile(s):0
Sky conditions: clear
Temperature: 75.0 F (23.9 C)
Dew Point: 48.9 F (9.4 C)
Relative Humidity: 39%
Pressure (altimeter): 30.01 in. Hg (1016 hPa)
ob: KCIU 192156Z AUTO 24009KT 10SM CLR 24/09 A3001 RMK AO2 SLP160 T02390094
cycle: 22

Station Type Date Time Source
KCIU TAF UTC NOAA

Error!

Example: see airport list